Terminal Aerodrome Forecast
Issued by NWS Twin Cities, MN

Home | Current Version | Previous Version | Text Only | Print | Product List | Glossary Off
Versions: 1 2 3 4 5 6 7 8 9 10 11 12 13 14 15 16 17 18

664
FTUS43 KMPX 281120
TAFSTC
TAF
KSTC 281120Z 2812/2912 06012KT P6SM VCSH SCT025 OVC040
      TEMPO 2812/2816 6SM -RA BR BKN025 OVC040
     FM281700 05010G19KT P6SM VCSH OVC040
     FM290200 04004KT P6SM BKN040 OVC080
     FM290600 03002KT P6SM SCT040 BKN080=

USA.gov is the U.S. government's official web portal to all federal, state and local government web resources and services.